Time;durP1;ratioP1;P1;durP2;ratioP2;P2;SDS_P1;SDS_P2;PMS_P1;PMS_P2;Temp;Humidity;BMP_temperature;BMP_pressure;BME280_temperature;BME280_humidity;BME280_pressure;Samples;Min_cycle;Max_cycle;Signal;HPM_P1;HPM_P2
2023/04/28 00:00:28;;;;;;;8.88;4.10;;;5.80;99.90;;;;;;5138099;27;20047;-72
2023/04/28 00:02:53;;;;;;;5.45;4.13;;;5.80;99.90;;;;;;5135260;27;20041;-74
2023/04/28 00:05:21;;;;;;;5.30;4.43;;;5.80;99.90;;;;;;5127071;27;20051;-72
2023/04/28 00:07:47;;;;;;;7.43;4.72;;;5.70;99.90;;;;;;5142407;27;20054;-73
2023/04/28 00:10:13;;;;;;;5.88;4.55;;;5.70;99.90;;;;;;5146714;27;20038;-72
2023/04/28 00:12:38;;;;;;;8.50;4.82;;;5.70;99.90;;;;;;5133838;27;20402;-72
2023/04/28 00:15:04;;;;;;;6.10;4.32;;;5.70;99.90;;;;;;5133802;27;20045;-72
2023/04/28 00:17:30;;;;;;;7.45;4.65;;;5.70;99.90;;;;;;5116488;27;20035;-72
2023/04/28 00:19:56;;;;;;;5.57;4.03;;;5.70;99.90;;;;;;5133920;27;20038;-72
2023/04/28 00:22:22;;;;;;;5.82;4.15;;;5.70;99.90;;;;;;5133468;27;20085;-72
2023/04/28 00:24:47;;;;;;;6.25;4.40;;;5.70;99.90;;;;;;5132454;27;20044;-72
2023/04/28 00:27:13;;;;;;;5.70;4.22;;;5.70;99.90;;;;;;5133529;27;20035;-73
2023/04/28 00:29:39;;;;;;;4.93;3.70;;;5.70;99.90;;;;;;5134808;27;20047;-72
2023/04/28 00:32:05;;;;;;;5.50;3.58;;;5.70;99.90;;;;;;5133534;27;20059;-73
2023/04/28 00:34:36;;;;;;;8.65;4.47;;;5.70;99.90;;;;;;5116530;27;20123;-73
2023/04/28 00:37:02;;;;;;;5.72;4.03;;;5.70;99.90;;;;;;5133750;27;20073;-73
2023/04/28 00:39:28;;;;;;;5.53;3.95;;;5.70;99.90;;;;;;5136889;27;20046;-73
2023/04/28 00:41:54;;;;;;;9.05;4.45;;;5.70;99.90;;;;;;5136712;27;20062;-74
2023/04/28 00:44:20;;;;;;;5.80;4.25;;;5.70;99.90;;;;;;5128882;27;20120;-74
2023/04/28 00:46:46;;;;;;;5.38;4.10;;;5.70;99.90;;;;;;5151142;27;20381;-73
2023/04/28 00:49:14;;;;;;;5.55;4.50;;;5.70;99.90;;;;;;5137014;27;20046;-74
2023/04/28 00:51:39;;;;;;;5.75;4.25;;;5.70;99.90;;;;;;5131919;27;20327;-73
2023/04/28 00:54:05;;;;;;;6.32;4.70;;;5.70;99.90;;;;;;5153790;27;20099;-73
2023/04/28 00:56:31;;;;;;;5.00;4.15;;;5.70;99.90;;;;;;5121959;27;20479;-73
2023/04/28 00:58:57;;;;;;;5.45;4.43;;;5.70;99.90;;;;;;5139519;27;20077;-73
2023/04/28 01:01:23;;;;;;;6.68;5.03;;;5.70;99.90;;;;;;5141372;27;20089;-73
2023/04/28 01:03:49;;;;;;;6.78;5.20;;;5.60;99.90;;;;;;5133889;27;20116;-74
2023/04/28 01:06:15;;;;;;;7.10;4.82;;;5.70;99.90;;;;;;5143880;27;20073;-72
2023/04/28 01:08:42;;;;;;;7.95;4.57;;;5.70;99.90;;;;;;5153211;27;20051;-73
2023/04/28 01:11:13;;;;;;;6.03;4.72;;;5.70;99.90;;;;;;5141381;27;20122;-73
2023/04/28 01:13:39;;;;;;;7.13;4.53;;;5.60;98.80;;;;;;5145024;27;20051;-72
2023/04/28 01:16:06;;;;;;;7.10;4.82;;;5.60;97.40;;;;;;5127411;27;20047;-73
2023/04/28 01:18:32;;;;;;;6.38;4.38;;;5.60;95.90;;;;;;5122823;27;20423;-72
2023/04/28 01:20:58;;;;;;;6.05;4.50;;;5.60;96.90;;;;;;5132394;27;20046;-73
2023/04/28 01:23:23;;;;;;;6.32;4.97;;;5.70;94.50;;;;;;5132318;27;20081;-74
2023/04/28 01:25:49;;;;;;;6.18;4.70;;;5.70;93.10;;;;;;5115101;27;20043;-72
2023/04/28 01:28:15;;;;;;;6.43;4.70;;;5.70;91.50;;;;;;5129721;27;20064;-73
2023/04/28 01:30:40;;;;;;;7.88;4.78;;;5.80;85.80;;;;;;5113839;27;20032;-73
2023/04/28 01:33:06;;;;;;;6.93;4.78;;;5.80;83.90;;;;;;5111702;27;20075;-73
2023/04/28 01:35:32;;;;;;;5.85;4.32;;;5.80;82.50;;;;;;5111269;28;20040;-73
2023/04/28 01:37:58;;;;;;;5.82;4.60;;;5.80;87.20;;;;;;5094313;28;20051;-73
2023/04/28 01:40:23;;;;;;;7.88;4.65;;;5.80;88.70;;;;;;5110661;27;20047;-72
2023/04/28 01:42:50;;;;;;;6.97;4.57;;;5.80;84.50;;;;;;5110784;27;20048;-73
2023/04/28 01:45:15;;;;;;;4.88;4.22;;;5.80;91.90;;;;;;5111242;28;20069;-73
2023/04/28 01:47:41;;;;;;;5.80;4.18;;;5.80;91.50;;;;;;5115056;27;20584;-73
2023/04/28 01:50:07;;;;;;;4.65;4.00;;;5.70;97.50;;;;;;5112225;27;20062;-73
2023/04/28 01:52:33;;;;;;;6.18;4.88;;;5.70;99.90;;;;;;5128378;27;20044;-73
2023/04/28 01:54:58;;;;;;;6.57;4.93;;;5.70;99.90;;;;;;5110997;27;20039;-73
2023/04/28 01:57:25;;;;;;;6.05;4.65;;;5.70;99.90;;;;;;5124868;27;20054;-72
2023/04/28 01:59:51;;;;;;;8.45;5.15;;;5.70;99.90;;;;;;5127923;27;20052;-72
2023/04/28 02:02:17;;;;;;;;;;;5.70;99.90;;;;;;5122257;27;20039;-72
2023/04/28 02:04:43;;;;;;;7.93;5.60;;;5.70;99.90;;;;;;5111231;27;19945;-73
2023/04/28 02:07:08;;;;;;;8.45;5.50;;;5.70;99.90;;;;;;5101009;27;20047;-72
2023/04/28 02:09:34;;;;;;;6.32;4.90;;;5.70;99.90;;;;;;5129054;27;20439;-73
2023/04/28 02:12:01;;;;;;;8.43;5.82;;;5.70;99.90;;;;;;5135740;27;20122;-72
2023/04/28 02:14:27;;;;;;;8.88;6.32;;;5.80;99.90;;;;;;5116988;27;20044;-73
2023/04/28 02:16:53;;;;;;;7.13;5.68;;;5.80;99.90;;;;;;5112061;27;20072;-72
2023/04/28 02:19:19;;;;;;;10.02;6.95;;;5.80;99.90;;;;;;5117175;27;20597;-73
2023/04/28 02:21:44;;;;;;;10.80;7.18;;;5.80;99.90;;;;;;5099189;27;20043;-73
2023/04/28 02:24:10;;;;;;;9.75;6.22;;;5.80;99.90;;;;;;5113918;27;20035;-72
2023/04/28 02:26:36;;;;;;;8.63;6.72;;;5.80;99.90;;;;;;5106145;27;20478;-72
2023/04/28 02:29:05;;;;;;;9.00;7.10;;;5.90;99.90;;;;;;5113752;27;20331;-72
2023/04/28 02:31:30;;;;;;;8.98;6.28;;;5.80;99.90;;;;;;5110646;27;20376;-72
2023/04/28 02:33:56;;;;;;;8.70;6.20;;;5.80;99.90;;;;;;5108904;28;20035;-73
2023/04/28 02:36:22;;;;;;;8.20;5.88;;;5.80;99.90;;;;;;5114171;27;20036;-72
2023/04/28 02:38:47;;;;;;;9.52;6.78;;;5.80;99.90;;;;;;5117103;27;20509;-72
2023/04/28 02:41:14;;;;;;;12.23;7.60;;;5.80;99.90;;;;;;5126691;27;20045;-73
2023/04/28 02:43:40;;;;;;;8.23;6.65;;;5.70;99.90;;;;;;5135669;27;20050;-72
2023/04/28 02:46:06;;;;;;;7.63;5.50;;;5.80;99.90;;;;;;5118052;27;20046;-73
2023/04/28 02:48:34;;;;;;;7.93;6.38;;;5.70;99.90;;;;;;5148722;27;20081;-72
2023/04/28 02:51:00;;;;;;;9.55;7.28;;;5.70;99.90;;;;;;5127314;27;20047;-72
2023/04/28 02:53:26;;;;;;;11.80;8.55;;;5.70;99.90;;;;;;5151935;27;20099;-72
2023/04/28 02:55:52;;;;;;;12.13;8.45;;;5.80;99.90;;;;;;5151580;27;20046;-72
2023/04/28 02:58:17;;;;;;;10.38;8.23;;;5.80;99.90;;;;;;5129776;27;20436;-72
2023/04/28 03:00:43;;;;;;;10.60;8.15;;;5.80;99.90;;;;;;5130705;27;20049;-73
2023/04/28 03:03:09;;;;;;;11.50;8.98;;;5.80;99.90;;;;;;5148305;27;20050;-73
2023/04/28 03:05:35;;;;;;;12.32;8.80;;;5.90;99.90;;;;;;5115471;27;20049;-73
2023/04/28 03:08:01;;;;;;;12.32;9.85;;;5.90;99.90;;;;;;5136743;27;20423;-72
2023/04/28 03:10:26;;;;;;;11.30;8.10;;;5.90;99.90;;;;;;5135095;27;20039;-73
2023/04/28 03:12:52;;;;;;;13.05;9.00;;;5.90;99.90;;;;;;5142474;27;20046;-72
2023/04/28 03:15:18;;;;;;;11.25;8.25;;;5.90;99.90;;;;;;5106845;28;20044;-73
2023/04/28 03:17:44;;;;;;;11.82;8.70;;;5.90;99.90;;;;;;5121278;27;20539;-73
2023/04/28 03:20:10;;;;;;;8.75;6.90;;;5.90;99.90;;;;;;5130305;27;20100;-72
2023/04/28 03:22:36;;;;;;;12.48;8.65;;;5.90;99.90;;;;;;5130266;27;20047;-73
2023/04/28 03:25:02;;;;;;;12.75;9.38;;;5.90;99.90;;;;;;5129998;27;20088;-72
2023/04/28 03:27:28;;;;;;;12.30;9.00;;;6.00;99.90;;;;;;5130322;27;20040;-72
2023/04/28 03:29:54;;;;;;;14.30;9.63;;;6.00;99.90;;;;;;5129904;27;20054;-72
2023/04/28 03:32:19;;;;;;;15.40;10.15;;;6.00;99.90;;;;;;5106304;28;20056;-72
2023/04/28 03:34:45;;;;;;;12.90;8.73;;;6.00;99.90;;;;;;5109540;28;20458;-73
2023/04/28 03:37:12;;;;;;;13.80;10.15;;;6.00;99.90;;;;;;5110116;27;20058;-73
2023/04/28 03:39:38;;;;;;;16.27;11.52;;;6.00;99.90;;;;;;5109470;28;20130;-72
2023/04/28 03:42:04;;;;;;;17.02;11.25;;;6.00;99.90;;;;;;5111034;27;20159;-72
2023/04/28 03:44:30;;;;;;;18.75;11.27;;;6.00;99.90;;;;;;5116628;27;20054;-73
2023/04/28 03:46:56;;;;;;;14.48;10.63;;;6.00;99.90;;;;;;5132173;27;20545;-72
2023/04/28 03:49:21;;;;;;;16.40;10.27;;;5.90;99.90;;;;;;5105934;28;20070;-73
2023/04/28 03:51:48;;;;;;;15.35;11.27;;;5.90;99.90;;;;;;5131569;27;20379;-73
2023/04/28 03:54:14;;;;;;;14.63;10.23;;;5.90;99.90;;;;;;5148831;27;20082;-73
2023/04/28 03:56:40;;;;;;;14.35;10.10;;;5.90;99.90;;;;;;5150487;27;20047;-72
2023/04/28 03:59:06;;;;;;;14.52;9.93;;;5.90;99.90;;;;;;5135286;27;20043;-72
2023/04/28 04:01:32;;;;;;;15.63;10.50;;;5.80;99.90;;;;;;5135673;27;20038;-73
2023/04/28 04:03:57;;;;;;;14.70;10.65;;;5.80;99.90;;;;;;5118775;27;20061;-73
2023/04/28 04:06:23;;;;;;;15.93;10.20;;;5.90;99.90;;;;;;5123358;27;20079;-72
2023/04/28 04:08:49;;;;;;;13.82;9.48;;;5.90;99.90;;;;;;5126531;27;20047;-73
2023/04/28 04:11:15;;;;;;;16.65;10.13;;;5.90;99.90;;;;;;5132122;27;20119;-73
2023/04/28 04:13:41;;;;;;;12.68;9.52;;;5.90;99.90;;;;;;5138550;27;20140;-73
2023/04/28 04:16:07;;;;;;;15.32;9.85;;;6.00;99.90;;;;;;5130674;27;20043;-72
2023/04/28 04:18:32;;;;;;;14.25;10.18;;;6.00;99.90;;;;;;5138875;27;20071;-73
2023/04/28 04:20:58;;;;;;;12.65;9.48;;;6.00;99.90;;;;;;5133041;27;20074;-73
2023/04/28 04:23:24;;;;;;;12.65;8.85;;;6.00;99.90;;;;;;5121986;27;20031;-73
2023/04/28 04:25:50;;;;;;;19.15;11.18;;;6.00;99.90;;;;;;5125126;27;20207;-73
2023/04/28 04:28:15;;;;;;;12.60;9.02;;;6.00;99.90;;;;;;5136127;27;20038;-73
2023/04/28 04:30:41;;;;;;;12.63;9.50;;;6.00;99.90;;;;;;5150051;27;20442;-73
2023/04/28 04:33:07;;;;;;;16.15;9.90;;;6.00;99.90;;;;;;5136352;27;20432;-73
2023/04/28 04:35:33;;;;;;;15.07;9.77;;;6.00;99.90;;;;;;5147030;27;20088;-72
2023/04/28 04:38:00;;;;;;;14.13;10.13;;;6.00;99.90;;;;;;5130707;27;20039;-73
2023/04/28 04:40:25;;;;;;;;;;;6.00;99.90;;;;;;5129917;27;20046;-72
2023/04/28 04:42:51;;;;;;;12.30;9.27;;;6.00;99.90;;;;;;5142450;27;20289;-72
2023/04/28 04:45:17;;;;;;;13.60;9.43;;;6.10;99.90;;;;;;5129237;27;20126;-73
2023/04/28 04:47:43;;;;;;;14.65;10.73;;;6.10;99.90;;;;;;5130161;27;20042;-73
2023/04/28 04:50:10;;;;;;;12.68;9.60;;;6.10;99.90;;;;;;5148405;27;20046;-72
2023/04/28 04:52:36;;;;;;;15.40;9.90;;;6.10;99.90;;;;;;5145117;27;20500;-73
2023/04/28 04:55:02;;;;;;;13.25;9.13;;;6.10;99.90;;;;;;5134845;27;20051;-73
2023/04/28 04:57:27;;;;;;;14.73;9.55;;;6.10;99.90;;;;;;5128745;27;20078;-73
2023/04/28 04:59:53;;;;;;;14.25;9.55;;;6.10;99.90;;;;;;5115768;27;20050;-72
2023/04/28 05:02:19;;;;;;;14.00;9.30;;;6.10;99.90;;;;;;5138191;27;20039;-74
2023/04/28 05:04:45;;;;;;;15.73;9.43;;;6.10;99.90;;;;;;5126513;27;20759;-74
2023/04/28 05:07:10;;;;;;;13.50;9.32;;;6.10;99.90;;;;;;5126559;27;20076;-74
2023/04/28 05:09:36;;;;;;;13.45;9.65;;;6.10;99.90;;;;;;5120170;27;20483;-74
2023/04/28 05:12:02;;;;;;;10.30;7.55;;;6.20;99.90;;;;;;5130016;27;20040;-74
2023/04/28 05:14:27;;;;;;;11.77;8.30;;;6.20;99.90;;;;;;5112381;27;20444;-74
2023/04/28 05:16:53;;;;;;;11.65;9.05;;;6.20;99.90;;;;;;5114274;27;20444;-73
2023/04/28 05:19:19;;;;;;;13.43;9.10;;;6.20;99.90;;;;;;5132630;27;20070;-73
2023/04/28 05:21:46;;;;;;;11.32;8.93;;;6.20;99.90;;;;;;5100810;27;20406;-73
2023/04/28 05:24:13;;;;;;;13.95;9.20;;;6.20;99.90;;;;;;5118198;27;20455;-73
2023/04/28 05:26:39;;;;;;;11.05;8.68;;;6.20;99.90;;;;;;5120736;27;20051;-72
2023/04/28 05:29:05;;;;;;;12.20;8.27;;;6.20;99.90;;;;;;5126966;27;20508;-73
2023/04/28 05:31:30;;;;;;;11.50;8.63;;;6.30;99.90;;;;;;5113834;27;20039;-73
2023/04/28 05:33:57;;;;;;;12.30;9.20;;;6.30;99.90;;;;;;5127121;27;20447;-73
2023/04/28 05:36:23;;;;;;;10.70;8.38;;;6.30;99.90;;;;;;5112761;27;20044;-73
2023/04/28 05:38:49;;;;;;;10.57;7.47;;;6.30;99.90;;;;;;5127472;27;20031;-73
2023/04/28 05:41:15;;;;;;;8.68;7.43;;;6.30;99.90;;;;;;5123496;27;20047;-73
2023/04/28 05:43:40;;;;;;;11.05;8.07;;;6.40;99.90;;;;;;5111425;28;20058;-73
2023/04/28 05:46:06;;;;;;;12.70;9.02;;;6.50;99.90;;;;;;5105247;27;20122;-73
2023/04/28 05:48:32;;;;;;;11.85;8.25;;;6.50;99.90;;;;;;5130971;27;20539;-73
2023/04/28 05:50:57;;;;;;;12.30;8.25;;;6.50;99.90;;;;;;5124438;27;20085;-73
2023/04/28 05:53:23;;;;;;;9.05;7.57;;;6.60;99.90;;;;;;5132319;27;20047;-73
2023/04/28 05:55:49;;;;;;;9.60;7.38;;;6.60;99.90;;;;;;5098628;27;20043;-72
2023/04/28 05:58:15;;;;;;;10.80;7.32;;;6.70;99.90;;;;;;5120794;27;20051;-73
2023/04/28 06:00:40;;;;;;;10.07;8.50;;;6.70;99.90;;;;;;5127625;27;20039;-72
2023/04/28 06:03:09;;;;;;;15.38;8.75;;;6.70;99.90;;;;;;5124601;27;20036;-73
2023/04/28 06:05:35;;;;;;;11.73;8.75;;;6.70;99.90;;;;;;5122300;27;20039;-73
2023/04/28 06:08:02;;;;;;;12.00;8.00;;;6.70;99.90;;;;;;5131776;27;20481;-72
2023/04/28 06:10:27;;;;;;;;;;;6.70;99.90;;;;;;5130163;27;20046;-73
2023/04/28 06:12:53;;;;;;;11.35;7.72;;;6.70;99.90;;;;;;5132983;27;19923;-73
2023/04/28 06:15:19;;;;;;;11.23;7.57;;;6.80;99.90;;;;;;5134000;27;20478;-73
2023/04/28 06:17:45;;;;;;;11.85;8.10;;;6.80;99.90;;;;;;5132673;27;20633;-73
2023/04/28 06:20:12;;;;;;;10.68;7.65;;;6.80;99.90;;;;;;5145104;27;20111;-73
2023/04/28 06:22:39;;;;;;;8.73;7.18;;;6.90;99.90;;;;;;5135451;27;20109;-73
2023/04/28 06:25:05;;;;;;;10.95;7.65;;;6.90;99.90;;;;;;5111538;27;20047;-71
2023/04/28 06:27:31;;;;;;;9.85;8.13;;;6.90;99.90;;;;;;5134100;27;20098;-71
2023/04/28 06:29:58;;;;;;;12.82;8.52;;;6.90;97.20;;;;;;5125288;27;20397;-71
2023/04/28 06:32:24;;;;;;;12.90;8.50;;;6.90;97.90;;;;;;5129757;27;20043;-71
2023/04/28 06:34:49;;;;;;;10.88;7.57;;;6.90;96.50;;;;;;5122417;27;20043;-72
2023/04/28 06:37:15;;;;;;;11.13;7.90;;;7.00;97.40;;;;;;5113462;27;20043;-72
2023/04/28 06:39:41;;;;;;;10.13;7.85;;;7.00;98.40;;;;;;5127693;27;20052;-72
2023/04/28 06:42:07;;;;;;;10.57;6.95;;;7.10;93.20;;;;;;5132571;27;20051;-74
2023/04/28 06:44:33;;;;;;;8.27;6.82;;;7.10;91.80;;;;;;5128903;27;20047;-73
2023/04/28 06:46:58;;;;;;;9.90;7.60;;;7.20;97.30;;;;;;5131702;27;20046;-73
2023/04/28 06:49:24;;;;;;;10.32;7.30;;;7.20;93.60;;;;;;5132818;27;20069;-72
2023/04/28 06:51:50;;;;;;;11.80;7.80;;;7.30;84.60;;;;;;5129084;27;20047;-73
2023/04/28 06:54:17;;;;;;;9.75;6.40;;;7.30;87.30;;;;;;5126961;27;20425;-72
2023/04/28 06:56:42;;;;;;;10.20;8.27;;;7.40;78.40;;;;;;5129247;27;20039;-72
2023/04/28 06:59:08;;;;;;;10.55;7.63;;;7.50;70.80;;;;;;5126314;27;20530;-72
2023/04/28 07:01:34;;;;;;;9.50;6.40;;;7.60;67.60;;;;;;5127879;27;20046;-71
2023/04/28 07:04:00;;;;;;;10.77;7.50;;;7.70;66.90;;;;;;5125334;27;20057;-71
2023/04/28 07:06:26;;;;;;;10.18;7.00;;;7.70;39.30;;;;;;5132564;27;20070;-72
2023/04/28 07:08:52;;;;;;;;;;;7.80;41.40;;;;;;5130616;27;20077;-72
2023/04/28 07:11:18;;;;;;;8.55;6.93;;;7.80;35.50;;;;;;5084390;27;20905;-72
2023/04/28 07:13:48;;;;;;;9.43;7.40;;;7.80;26.50;;;;;;5130045;27;20054;-71
2023/04/28 07:16:14;;;;;;;8.88;6.93;;;7.90;15.10;;;;;;5127807;27;20078;-70
2023/04/28 07:18:39;;;;;;;10.00;7.57;;;8.00;1.20;;;;;;5131689;27;20082;-70
2023/04/28 07:21:05;;;;;;;8.98;6.70;;;8.00;4.70;;;;;;5102791;27;20111;-70
2023/04/28 07:23:31;;;;;;;10.35;7.60;;;8.10;1.00;;;;;;5096675;27;20050;-71
2023/04/28 07:25:57;;;;;;;10.73;7.50;;;8.10;1.00;;;;;;5129384;27;20043;-71
2023/04/28 07:28:23;;;;;;;11.95;7.50;;;8.20;1.00;;;;;;5120403;27;20044;-71
2023/04/28 07:30:49;;;;;;;8.63;6.05;;;8.10;1.00;;;;;;5109468;28;20096;-71
2023/04/28 07:33:14;;;;;;;7.32;6.00;;;8.20;1.00;;;;;;5126061;27;20556;-71
2023/04/28 07:35:40;;;;;;;7.55;6.00;;;8.30;1.00;;;;;;5115514;27;20084;-71
2023/04/28 07:38:06;;;;;;;8.90;6.68;;;8.30;1.00;;;;;;5141315;27;20433;-71
2023/04/28 07:40:32;;;;;;;7.97;5.93;;;8.30;1.00;;;;;;5103331;28;20044;-71
2023/04/28 07:42:57;;;;;;;7.80;5.55;;;8.30;1.00;;;;;;5131427;27;20184;-73
2023/04/28 07:45:23;;;;;;;9.57;6.05;;;8.40;1.00;;;;;;5138084;27;20481;-72
2023/04/28 07:47:49;;;;;;;9.32;7.18;;;8.50;1.00;;;;;;5115265;27;20053;-72
2023/04/28 07:50:16;;;;;;;10.98;6.22;;;8.50;1.00;;;;;;5129714;27;20051;-73
2023/04/28 07:52:42;;;;;;;6.53;5.45;;;8.60;1.00;;;;;;5137766;27;20078;-72
2023/04/28 07:55:08;;;;;;;10.25;7.05;;;8.70;1.00;;;;;;5138008;27;20449;-73
2023/04/28 07:57:34;;;;;;;7.93;6.20;;;8.70;1.00;;;;;;5144140;27;20049;-73
2023/04/28 08:00:00;;;;;;;8.82;6.35;;;8.80;1.00;;;;;;5134669;27;20039;-71
2023/04/28 08:02:26;;;;;;;7.07;5.82;;;8.80;1.00;;;;;;5130884;27;20046;-72
2023/04/28 08:04:52;;;;;;;9.25;6.45;;;8.90;1.00;;;;;;5081763;27;20199;-73
2023/04/28 08:07:17;;;;;;;7.80;6.65;;;8.90;1.00;;;;;;5124220;27;20032;-72
2023/04/28 08:09:46;;;;;;;7.88;6.10;;;8.90;1.00;;;;;;5096529;27;20035;-73
2023/04/28 08:12:12;;;;;;;7.90;5.70;;;8.80;1.00;;;;;;5110445;27;20044;-73
2023/04/28 08:14:38;;;;;;;;;;;8.80;1.00;;;;;;5125563;27;20110;-72
2023/04/28 08:17:03;;;;;;;9.00;5.75;;;8.80;1.00;;;;;;5130237;27;20010;-72
2023/04/28 08:19:29;;;;;;;6.80;4.75;;;8.90;1.00;;;;;;5134903;27;20375;-72
2023/04/28 08:21:55;;;;;;;6.40;4.90;;;8.90;1.00;;;;;;5125842;27;20067;-72
2023/04/28 08:24:21;;;;;;;9.85;6.90;;;9.00;1.00;;;;;;5131553;27;20042;-72
2023/04/28 08:26:46;;;;;;;8.90;6.53;;;8.90;1.00;;;;;;5132669;27;20161;-72
2023/04/28 08:29:12;;;;;;;8.98;6.28;;;8.90;1.00;;;;;;5119641;27;20036;-72
2023/04/28 08:31:38;;;;;;;8.45;6.20;;;9.00;1.00;;;;;;5108761;27;20057;-72
2023/04/28 08:34:03;;;;;;;6.55;5.50;;;8.90;1.00;;;;;;5125002;27;20557;-72
2023/04/28 08:36:31;;;;;;;6.85;5.65;;;9.00;1.00;;;;;;5135233;27;20521;-72
2023/04/28 08:38:58;;;;;;;8.52;6.22;;;9.00;1.00;;;;;;5140852;27;20099;-72
2023/04/28 08:41:26;;;;;;;10.52;6.50;;;9.10;1.00;;;;;;5133965;27;20576;-72
2023/04/28 08:43:53;;;;;;;7.90;6.30;;;9.10;1.00;;;;;;5131433;27;20130;-72
2023/04/28 08:46:20;;;;;;;8.15;6.80;;;9.00;1.00;;;;;;5124050;27;20493;-71
2023/04/28 08:48:48;;;;;;;6.63;5.75;;;9.00;1.00;;;;;;5126657;27;20039;-72
2023/04/28 08:51:30;;;;;;;5.80;4.75;;;9.10;1.00;;;;;;5130051;27;20038;-72
2023/04/28 08:53:58;;;;;;;6.10;5.40;;;9.10;1.00;;;;;;5129311;27;20047;-72
2023/04/28 08:56:30;;;;;;;7.40;5.55;;;9.20;9.30;;;;;;5125948;27;20555;-71
2023/04/28 08:58:57;;;;;;;9.02;6.68;;;9.20;25.20;;;;;;5130909;27;20067;-71
2023/04/28 09:01:23;;;;;;;5.63;5.10;;;9.20;34.80;;;;;;5133697;27;20043;-72
2023/04/28 09:03:48;;;;;;;6.68;4.68;;;9.30;62.50;;;;;;5124165;27;20043;-72
2023/04/28 09:06:14;;;;;;;5.93;4.53;;;9.50;79.80;;;;;;5124041;27;20047;-72
2023/04/28 09:08:40;;;;;;;7.45;5.00;;;9.70;81.30;;;;;;5120157;27;20100;-72
2023/04/28 09:11:12;;;;;;;9.32;6.60;;;9.80;68.60;;;;;;5127457;27;20198;-72
2023/04/28 09:13:39;;;;;;;9.30;6.90;;;9.80;49.20;;;;;;5120523;27;20066;-72
2023/04/28 09:16:05;;;;;;;10.02;7.65;;;9.90;26.00;;;;;;5136425;27;20389;-72
2023/04/28 09:18:32;;;;;;;10.45;7.90;;;9.90;36.10;;;;;;5124939;27;20039;-72
2023/04/28 09:21:06;;;;;;;9.07;6.72;;;9.90;13.60;;;;;;5130741;27;20078;-72
2023/04/28 09:23:32;;;;;;;9.77;7.05;;;10.10;34.70;;;;;;5136791;27;20074;-72
2023/04/28 09:26:09;;;;;;;7.85;6.85;;;10.20;46.80;;;;;;5133926;27;20054;-73
2023/04/28 09:28:35;;;;;;;9.05;6.43;;;10.30;17.90;;;;;;5132088;27;20046;-72
2023/04/28 09:31:01;;;;;;;10.52;6.60;;;10.40;1.00;;;;;;5137175;27;20031;-71
2023/04/28 09:33:27;;;;;;;;;;;10.50;1.00;;;;;;5131749;27;20089;-70
2023/04/28 09:35:53;;;;;;;10.18;7.47;;;10.60;1.00;;;;;;5133273;27;20377;-71
2023/04/28 09:38:20;;;;;;;9.85;7.95;;;10.60;1.00;;;;;;5135825;27;20074;-71
2023/04/28 09:40:51;;;;;;;9.23;7.25;;;10.70;1.00;;;;;;5137601;27;20119;-71
2023/04/28 09:43:31;;;;;;;8.38;6.53;;;10.80;1.00;;;;;;5130742;27;20100;-70
2023/04/28 09:45:59;;;;;;;8.73;6.90;;;10.90;1.00;;;;;;5130629;27;20047;-70
2023/04/28 09:48:33;;;;;;;9.02;7.00;;;11.00;1.00;;;;;;5131954;27;20227;-71
2023/04/28 09:51:04;;;;;;;11.40;7.40;;;11.30;1.00;;;;;;5137212;27;20099;-71
2023/04/28 09:53:30;;;;;;;7.78;6.15;;;11.60;1.00;;;;;;5128183;27;20141;-71
2023/04/28 09:55:58;;;;;;;5.88;5.25;;;12.10;1.00;;;;;;5138543;27;20085;-71
2023/04/28 09:58:27;;;;;;;8.52;6.63;;;12.80;1.00;;;;;;5137203;27;20079;-72
2023/04/28 10:00:54;;;;;;;9.63;6.65;;;12.80;99.90;;;;;;5135139;27;20047;-71
2023/04/28 10:03:27;;;;;;;7.15;5.70;;;12.70;99.90;;;;;;5131013;27;20061;-71
2023/04/28 10:05:55;;;;;;;8.25;5.38;;;12.60;99.90;;;;;;5137345;27;20038;-72
2023/04/28 10:08:22;;;;;;;7.65;5.40;;;12.70;99.90;;;;;;5139451;27;20038;-71
2023/04/28 10:10:49;;;;;;;7.35;5.43;;;12.70;99.90;;;;;;5137859;27;20122;-72
2023/04/28 10:13:18;;;;;;;8.15;5.82;;;12.50;99.90;;;;;;5137255;27;20047;-72
2023/04/28 10:15:46;;;;;;;6.60;5.90;;;12.50;99.90;;;;;;5120031;27;20049;-72
2023/04/28 10:18:15;;;;;;;6.55;5.75;;;12.50;99.90;;;;;;5127647;27;20515;-72
2023/04/28 10:20:52;;;;;;;7.60;6.13;;;12.50;99.90;;;;;;5112477;27;20047;-73
2023/04/28 10:23:45;;;;;;;7.80;5.88;;;12.40;99.90;;;;;;5125665;27;20083;-72
2023/04/28 10:26:13;;;;;;;7.97;6.50;;;12.50;99.90;;;;;;5115918;27;20346;-72
2023/04/28 10:28:50;;;;;;;7.93;5.97;;;12.60;99.90;;;;;;5133847;27;20030;-73
2023/04/28 10:31:20;;;;;;;7.80;6.40;;;13.00;99.90;;;;;;5135076;27;20046;-72
2023/04/28 10:33:46;;;;;;;8.85;6.63;;;13.30;99.90;;;;;;5121017;27;20035;-69
2023/04/28 10:36:53;;;;;;;7.47;6.43;;;13.20;99.90;;;;;;5131991;27;20041;-70
2023/04/28 10:39:19;;;;;;;7.22;5.95;;;13.20;99.90;;;;;;5134135;27;20562;-70
2023/04/28 10:41:46;;;;;;;13.60;6.38;;;13.60;99.90;;;;;;5140870;27;20157;-72
2023/04/28 10:44:27;;;;;;;8.90;6.00;;;13.70;99.90;;;;;;5135187;27;20082;-71
2023/04/28 10:47:05;;;;;;;9.73;7.07;;;13.60;99.90;;;;;;5133511;27;20095;-71
2023/04/28 10:49:56;;;;;;;8.10;6.47;;;13.40;99.90;;;;;;5134116;27;20049;-73
2023/04/28 10:52:37;;;;;;;7.22;6.00;;;13.20;99.90;;;;;;5140574;27;20045;-72
2023/04/28 10:55:38;;;;;;;8.40;5.30;;;12.90;99.90;;;;;;5136214;27;20046;-70
2023/04/28 10:58:19;;;;;;;6.60;5.50;;;12.80;99.90;;;;;;5136948;27;20051;-69
2023/04/28 11:00:46;;;;;;;8.18;6.13;;;12.60;1.00;;;;;;5124743;27;20417;-69
2023/04/28 11:04:03;;;;;;;6.45;5.20;;;12.60;1.00;;;;;;5138109;27;20494;-70
2023/04/28 11:06:39;;;;;;;7.20;6.38;;;12.50;1.00;;;;;;5133460;27;20122;-69
2023/04/28 11:09:14;;;;;;;7.40;5.55;;;12.50;1.00;;;;;;5121667;27;20050;-69
2023/04/28 11:12:00;;;;;;;6.05;4.60;;;12.50;1.00;;;;;;5127629;27;20043;-72
2023/04/28 11:14:28;;;;;;;7.38;5.72;;;12.60;1.00;;;;;;5111981;27;20042;-68
2023/04/28 11:17:02;;;;;;;8.20;6.30;;;12.50;1.00;;;;;;5121661;27;20071;-68
2023/04/28 11:19:33;;;;;;;8.38;6.43;;;12.40;1.00;;;;;;5137670;27;20027;-68
2023/04/28 11:22:00;;;;;;;7.05;5.63;;;12.40;1.00;;;;;;5135671;27;20071;-69
2023/04/28 11:24:28;;;;;;;6.35;5.22;;;12.40;34.60;;;;;;5133870;27;20316;-69
2023/04/28 11:26:54;;;;;;;6.90;5.10;;;12.30;57.70;;;;;;5130262;27;20041;-69
2023/04/28 11:29:34;;;;;;;6.15;4.10;;;12.20;99.90;;;;;;5104519;27;20065;-68
2023/04/28 11:32:01;;;;;;;4.97;4.47;;;12.10;99.90;;;;;;5134734;27;20043;-69
2023/04/28 11:34:27;;;;;;;5.93;4.50;;;12.10;99.90;;;;;;5130936;27;20504;-69
2023/04/28 11:36:53;;;;;;;5.70;5.05;;;12.00;99.90;;;;;;5096825;27;20056;-69
2023/04/28 11:39:34;;;;;;;6.95;5.38;;;12.00;99.90;;;;;;5121284;27;20058;-69
2023/04/28 11:42:01;;;;;;;6.53;5.63;;;12.00;99.90;;;;;;5122808;28;20047;-69
2023/04/28 11:44:29;;;;;;;6.25;5.22;;;11.90;99.90;;;;;;5117039;27;20059;-69
2023/04/28 11:46:59;;;;;;;7.97;5.80;;;11.90;99.90;;;;;;5128260;27;20103;-68
2023/04/28 11:49:29;;;;;;;8.23;7.22;;;12.00;99.90;;;;;;5129715;28;20050;-69
2023/04/28 11:52:05;;;;;;;10.30;7.88;;;12.00;99.90;;;;;;5125365;27;20476;-69
2023/04/28 11:54:31;;;;;;;7.10;5.97;;;12.00;99.90;;;;;;5129959;27;20043;-69
2023/04/28 11:56:59;;;;;;;7.20;5.45;;;12.00;99.90;;;;;;5130798;27;20129;-69
2023/04/28 11:59:30;;;;;;;6.55;5.53;;;12.10;99.90;;;;;;5130146;27;20092;-69
2023/04/28 12:02:04;;;;;;;4.90;4.10;;;12.20;99.90;;;;;;5108402;27;20039;-69
2023/04/28 12:04:43;;;;;;;5.28;4.70;;;12.20;99.90;;;;;;5128896;27;20043;-69
2023/04/28 12:07:17;;;;;;;4.57;4.00;;;12.30;99.90;;;;;;5115473;27;20050;-69
2023/04/28 12:09:45;;;;;;;8.00;6.32;;;12.30;99.90;;;;;;5133690;27;20390;-69
2023/04/28 12:12:32;;;;;;;8.60;6.18;;;12.30;99.90;;;;;;5144498;27;20520;-69
2023/04/28 12:15:05;;;;;;;7.10;5.53;;;12.30;99.90;;;;;;5119627;27;20066;-69
2023/04/28 12:17:32;;;;;;;7.53;5.13;;;12.30;99.90;;;;;;5135814;27;20100;-69
2023/04/28 12:20:00;;;;;;;5.53;4.90;;;12.30;99.90;;;;;;5126803;27;20432;-69
2023/04/28 12:22:26;;;;;;;5.80;4.68;;;12.30;99.90;;;;;;5134293;27;20047;-69
2023/04/28 12:25:05;;;;;;;5.65;4.70;;;12.30;99.90;;;;;;5133033;27;20050;-75
2023/04/28 12:27:31;;;;;;;6.07;4.60;;;12.30;99.90;;;;;;5114166;27;20112;-68
2023/04/28 12:29:57;;;;;;;6.63;4.85;;;12.30;99.90;;;;;;5091047;28;20038;-68
2023/04/28 12:32:39;;;;;;;5.68;4.00;;;12.30;99.90;;;;;;5132472;27;20043;-68
2023/04/28 12:35:06;;;;;;;5.45;3.97;;;12.30;99.90;;;;;;5111209;27;20051;-68
2023/04/28 12:37:31;;;;;;;5.82;4.25;;;12.40;99.90;;;;;;5137445;27;20126;-68
2023/04/28 12:39:57;;;;;;;5.45;4.95;;;12.30;99.90;;;;;;5122170;27;20118;-68
2023/04/28 12:42:23;;;;;;;6.55;5.30;;;12.30;99.90;;;;;;5124616;27;20142;-68
2023/04/28 12:44:49;;;;;;;7.97;6.32;;;12.20;99.90;;;;;;5132775;27;20589;-68
2023/04/28 12:47:16;;;;;;;6.57;5.13;;;12.20;99.90;;;;;;5106930;27;20036;-67
2023/04/28 12:49:43;;;;;;;8.10;6.13;;;12.30;99.90;;;;;;5102009;27;20082;-68
2023/04/28 12:52:09;;;;;;;7.72;5.63;;;12.30;99.90;;;;;;5139774;27;20058;-69
2023/04/28 12:54:35;;;;;;;;;;;12.40;99.90;;;;;;5125607;27;20496;-69